createdAt,value
2018-06-04T00:02:28.743Z,20.60
2018-06-04T00:07:22.060Z,19.60
2018-06-04T00:12:15.352Z,19.77
2018-06-04T00:17:08.683Z,21.60
2018-06-04T00:22:02.019Z,22.83
2018-06-04T00:26:55.343Z,19.63
2018-06-04T00:31:48.607Z,20.53
2018-06-04T00:36:41.896Z,20.20
2018-06-04T00:41:35.537Z,19.42
2018-06-04T00:46:28.820Z,20.95
2018-06-04T00:51:22.068Z,19.63
2018-06-04T00:56:23.878Z,21.82
2018-06-04T01:01:17.206Z,20.73
2018-06-04T01:06:10.570Z,21.05
2018-06-04T01:11:03.890Z,21.90
2018-06-04T01:15:57.225Z,24.87
2018-06-04T01:20:50.509Z,24.10
2018-06-04T01:25:43.801Z,21.77
2018-06-04T01:30:36.950Z,22.48
2018-06-04T01:35:30.237Z,22.73
2018-06-04T01:40:23.571Z,24.25
2018-06-04T01:45:16.841Z,24.67
2018-06-04T01:50:10.159Z,24.35
2018-06-04T01:55:03.426Z,23.20
2018-06-04T01:59:56.698Z,24.05
2018-06-04T02:04:50.048Z,23.80
2018-06-04T02:09:43.283Z,25.75
2018-06-04T02:14:36.452Z,23.53
2018-06-04T02:19:29.609Z,24.50
2018-06-04T02:24:22.891Z,24.33
2018-06-04T02:29:16.282Z,22.73
2018-06-04T02:34:09.508Z,27.00
2018-06-04T02:39:03.709Z,23.67
2018-06-04T02:43:57.011Z,23.77
2018-06-04T02:48:50.429Z,23.10
2018-06-04T02:53:43.749Z,22.98
2018-06-04T02:58:37.052Z,22.50
2018-06-04T03:03:30.224Z,23.20
2018-06-04T03:08:23.376Z,22.70
2018-06-04T03:13:16.702Z,23.67
2018-06-04T03:18:10.027Z,22.67
2018-06-04T03:23:03.312Z,24.50
2018-06-04T03:27:56.597Z,21.87
2018-06-04T03:32:50.955Z,23.93
2018-06-04T03:37:44.252Z,22.87
2018-06-04T03:42:37.573Z,21.60
2018-06-04T03:47:30.903Z,21.57
2018-06-04T03:52:24.174Z,22.90
2018-06-04T03:57:17.455Z,20.82
2018-06-04T04:02:10.765Z,21.23
2018-06-04T04:07:04.107Z,19.80
2018-06-04T04:11:57.415Z,20.43
2018-06-04T04:16:50.785Z,21.73
2018-06-04T04:21:43.975Z,20.97
2018-06-04T04:26:37.286Z,20.80
2018-06-04T04:31:30.559Z,20.43
2018-06-04T04:36:23.857Z,18.50
2018-06-04T04:41:17.314Z,20.27
2018-06-04T04:46:10.613Z,22.47
2018-06-04T04:51:03.918Z,20.80
2018-06-04T04:55:57.114Z,19.57
2018-06-04T05:00:50.671Z,21.53
2018-06-04T05:05:43.894Z,17.67
2018-06-04T05:10:37.182Z,20.45
2018-06-04T05:15:30.523Z,19.03
2018-06-04T05:20:23.839Z,20.23
2018-06-04T05:25:17.099Z,20.40
2018-06-04T05:30:10.385Z,21.07
2018-06-04T05:35:03.772Z,19.55
2018-06-04T05:39:57.061Z,19.93
2018-06-04T05:44:50.358Z,18.90
2018-06-04T05:49:43.715Z,19.37
2018-06-04T05:54:37.021Z,18.93
2018-06-04T05:59:30.414Z,18.25
2018-06-04T06:04:23.777Z,20.73
2018-06-04T06:09:17.119Z,20.77
2018-06-04T06:14:10.402Z,21.00
2018-06-04T06:19:03.720Z,17.90
2018-06-04T06:23:57.014Z,20.88
2018-06-04T06:28:50.286Z,19.53
2018-06-04T06:33:43.698Z,18.40
2018-06-04T06:38:37.122Z,16.83
2018-06-04T06:43:30.382Z,20.03
2018-06-04T06:48:23.699Z,16.00
2018-06-04T06:53:16.987Z,14.70
2018-06-04T06:58:10.358Z,18.07
2018-06-04T07:03:03.671Z,14.87
2018-06-04T07:07:56.978Z,16.20
2018-06-04T07:12:50.275Z,18.25
2018-06-04T07:17:43.624Z,17.80
2018-06-04T07:22:36.921Z,13.57
2018-06-04T07:27:30.241Z,17.10
2018-06-04T07:32:23.542Z,17.93
2018-06-04T07:37:16.849Z,15.43
2018-06-04T07:42:10.177Z,16.47
2018-06-04T07:47:03.405Z,14.67
2018-06-04T07:51:56.716Z,12.17
2018-06-04T07:56:50.650Z,14.40
2018-06-04T08:01:44.800Z,13.27
2018-06-04T08:06:38.118Z,12.30
2018-06-04T08:11:31.407Z,14.93
2018-06-04T08:16:24.740Z,13.00
2018-06-04T08:21:18.065Z,14.57
2018-06-04T08:26:11.470Z,12.50
2018-06-04T08:31:04.762Z,13.17
2018-06-04T08:35:58.028Z,12.10
2018-06-04T08:40:52.290Z,10.10
2018-06-04T08:45:45.599Z,9.43
2018-06-04T08:50:38.897Z,9.23
2018-06-04T08:55:32.093Z,9.07
2018-06-04T09:00:25.388Z,8.47
2018-06-04T09:05:18.659Z,8.77
2018-06-04T09:10:11.943Z,8.50
2018-06-04T09:15:06.335Z,8.80
2018-06-04T09:19:59.636Z,10.73
2018-06-04T09:24:53.040Z,10.17
2018-06-04T09:29:46.356Z,7.93
2018-06-04T09:34:39.671Z,7.45
2018-06-04T09:39:33.132Z,9.23
2018-06-04T09:44:26.385Z,7.63
2018-06-04T09:49:19.799Z,6.93
2018-06-04T09:54:13.107Z,7.53
2018-06-04T09:59:06.454Z,6.62
2018-06-04T10:03:59.782Z,7.27
2018-06-04T10:08:53.189Z,7.35
2018-06-04T10:13:46.529Z,7.00
2018-06-04T10:18:39.825Z,7.47
2018-06-04T10:23:33.262Z,5.90
2018-06-04T10:28:26.538Z,6.40
2018-06-04T10:33:19.862Z,7.05
2018-06-04T10:38:14.622Z,8.17
2018-06-04T10:43:07.996Z,6.43
2018-06-04T10:48:01.291Z,6.90
2018-06-04T10:52:54.561Z,6.90
2018-06-04T10:57:47.907Z,7.13
2018-06-04T11:02:41.203Z,10.60
2018-06-04T11:07:34.492Z,8.17
2018-06-04T11:12:27.668Z,7.15
2018-06-04T11:17:21.363Z,8.90
2018-06-04T11:22:14.620Z,7.50
2018-06-04T11:27:07.974Z,9.85
2018-06-04T11:32:01.302Z,6.43
2018-06-04T11:36:54.696Z,7.60
2018-06-04T11:41:47.959Z,8.87
2018-06-04T11:46:41.254Z,6.70
2018-06-04T11:51:34.554Z,6.70
2018-06-04T11:56:27.846Z,7.17
2018-06-04T12:01:21.159Z,5.83
2018-06-04T12:06:14.461Z,5.60
2018-06-04T12:11:07.645Z,7.87
2018-06-04T12:16:01.209Z,6.27
2018-06-04T12:20:54.524Z,7.27
2018-06-04T12:25:47.842Z,6.83
2018-06-04T12:30:41.054Z,5.20
2018-06-04T12:35:34.371Z,4.92
2018-06-04T12:40:27.678Z,4.90
2018-06-04T12:45:20.948Z,6.17
2018-06-04T12:50:14.259Z,6.77
2018-06-04T12:55:07.579Z,5.30
2018-06-04T13:00:00.885Z,5.20
2018-06-04T13:04:54.331Z,6.20
2018-06-04T13:09:47.578Z,5.58
2018-06-04T13:14:40.896Z,5.77
2018-06-04T13:19:34.420Z,6.67
2018-06-04T13:24:27.713Z,5.85
2018-06-04T13:29:21.101Z,6.67
2018-06-04T13:34:14.429Z,7.03
2018-06-04T13:39:08.758Z,5.83
2018-06-04T13:44:02.092Z,5.10
2018-06-04T13:48:55.448Z,8.65
2018-06-04T13:53:48.744Z,6.43
2018-06-04T13:58:42.063Z,6.58
2018-06-04T14:03:35.343Z,7.13
2018-06-04T14:08:28.632Z,7.50
2018-06-04T14:13:22.003Z,8.97
2018-06-04T14:18:15.322Z,7.10
2018-06-04T14:23:08.623Z,6.70
2018-06-04T14:28:01.952Z,8.77
2018-06-04T14:32:55.220Z,9.80
2018-06-04T14:37:48.540Z,9.10
2018-06-04T14:42:41.854Z,8.07
2018-06-04T14:47:35.237Z,10.30
2018-06-04T14:52:28.590Z,6.90
2018-06-04T14:57:21.871Z,6.70
2018-06-04T15:02:15.156Z,8.63
2018-06-04T15:07:08.444Z,8.87
2018-06-04T15:12:01.623Z,8.10
2018-06-04T15:16:54.811Z,7.13
2018-06-04T15:21:48.113Z,6.97
2018-06-04T15:26:41.425Z,8.23
2018-06-04T15:31:34.746Z,9.05
2018-06-04T15:36:28.111Z,7.77
2018-06-04T15:41:21.377Z,8.83
2018-06-04T15:46:14.524Z,8.83
2018-06-04T15:51:07.910Z,7.55
2018-06-04T15:56:01.208Z,9.07
2018-06-04T16:00:54.421Z,10.60
2018-06-04T16:05:47.755Z,14.43
2018-06-04T16:10:41.253Z,9.85
2018-06-04T16:15:34.516Z,10.57
2018-06-04T16:20:27.727Z,10.48
2018-06-04T16:25:21.050Z,10.70
2018-06-04T16:30:14.428Z,11.20
2018-06-04T16:35:07.613Z,10.57
2018-06-04T16:40:00.790Z,10.93
2018-06-04T16:44:54.055Z,9.87
2018-06-04T16:49:48.148Z,12.37
2018-06-04T16:54:41.325Z,13.00
2018-06-04T16:59:34.811Z,11.60
2018-06-04T17:04:28.053Z,14.73
2018-06-04T17:09:21.486Z,11.27
2018-06-04T17:14:14.775Z,11.47
2018-06-04T17:19:08.245Z,11.80
2018-06-04T17:24:01.591Z,14.33
2018-06-04T17:28:54.869Z,15.17
2018-06-04T17:33:48.292Z,14.57
2018-06-04T17:38:41.597Z,15.13
2018-06-04T17:43:34.996Z,12.97
2018-06-04T17:48:28.248Z,15.55
2018-06-04T17:53:21.542Z,16.37
2018-06-04T17:58:14.821Z,16.50
2018-06-04T18:03:08.135Z,19.57
2018-06-04T18:08:01.502Z,16.67
2018-06-04T18:12:54.853Z,16.73
2018-06-04T18:17:48.103Z,19.77
2018-06-04T18:22:41.466Z,19.80
2018-06-04T18:27:34.733Z,19.77
2018-06-04T18:32:28.197Z,17.50
2018-06-04T18:37:21.620Z,19.40
2018-06-04T18:42:14.969Z,16.87
2018-06-04T18:47:08.510Z,17.63
2018-06-04T18:52:01.876Z,18.83
2018-06-04T18:56:55.258Z,16.15
2018-06-04T19:01:48.670Z,19.13
2018-06-04T19:06:42.098Z,17.10
2018-06-04T19:11:36.236Z,16.40
2018-06-04T19:16:29.586Z,17.20
2018-06-04T19:21:23.053Z,18.07
2018-06-04T19:26:16.288Z,16.03
2018-06-04T19:31:09.659Z,19.75
2018-06-04T19:36:03.019Z,20.50
2018-06-04T19:40:56.323Z,17.00
2018-06-04T19:45:49.967Z,18.47
2018-06-04T19:50:43.299Z,19.63
2018-06-04T19:55:36.754Z,19.33
2018-06-04T20:00:30.264Z,17.93
2018-06-04T20:05:23.586Z,17.73
2018-06-04T20:10:16.907Z,18.57
2018-06-04T20:15:10.239Z,16.70
2018-06-04T20:20:04.948Z,21.67
2018-06-04T20:24:58.281Z,17.70
2018-06-04T20:29:51.692Z,14.07
2018-06-04T20:34:44.976Z,14.67
2018-06-04T20:39:38.280Z,15.30
2018-06-04T20:44:31.597Z,15.90
2018-06-04T20:49:24.943Z,14.60
2018-06-04T20:54:18.230Z,17.10
2018-06-04T20:59:11.535Z,19.13
2018-06-04T21:04:04.761Z,16.80
2018-06-04T21:08:58.126Z,15.80
2018-06-04T21:13:51.447Z,16.00
2018-06-04T21:18:44.800Z,18.53
2018-06-04T21:23:38.084Z,15.43
2018-06-04T21:28:31.574Z,22.40
2018-06-04T21:33:24.989Z,18.87
2018-06-04T21:38:18.273Z,16.30
2018-06-04T21:43:11.564Z,17.60
2018-06-04T21:48:04.923Z,16.07
2018-06-04T21:52:58.248Z,18.02
2018-06-04T21:57:51.729Z,16.93
2018-06-04T22:02:45.058Z,17.20
2018-06-04T22:07:38.699Z,19.53
2018-06-04T22:12:32.036Z,17.13
2018-06-04T22:17:25.408Z,19.37
2018-06-04T22:22:18.728Z,19.05
2018-06-04T22:27:12.175Z,18.97
2018-06-04T22:32:05.679Z,21.43
2018-06-04T22:36:59.000Z,17.35
2018-06-04T22:41:52.373Z,18.57
2018-06-04T22:46:45.695Z,17.23
2018-06-04T22:51:39.150Z,20.70
2018-06-04T22:56:32.433Z,19.80
2018-06-04T23:01:25.809Z,18.55
2018-06-04T23:06:19.148Z,18.40
2018-06-04T23:11:12.462Z,19.20
2018-06-04T23:16:05.837Z,19.37
2018-06-04T23:20:59.104Z,20.33
2018-06-04T23:25:52.470Z,20.43
2018-06-04T23:30:45.739Z,20.20
2018-06-04T23:35:39.152Z,18.60
2018-06-04T23:40:32.449Z,18.37
2018-06-04T23:45:25.735Z,18.50
2018-06-04T23:50:18.984Z,22.55
2018-06-04T23:55:12.280Z,20.67
